createdAt,value
2018-12-09T00:02:18.984Z,96575.11
2018-12-09T00:04:46.383Z,96572.77
2018-12-09T00:07:13.876Z,96593.28
2018-12-09T00:09:41.368Z,96601.48
2018-12-09T00:12:08.876Z,96601.45
2018-12-09T00:14:36.325Z,96590.98
2018-12-09T00:17:03.775Z,96586.15
2018-12-09T00:19:31.260Z,96579.72
2018-12-09T00:21:58.624Z,96571.64
2018-12-09T00:24:26.084Z,96591.16
2018-12-09T00:26:53.553Z,96589.80
2018-12-09T00:29:20.950Z,96602.34
2018-12-09T00:31:48.348Z,96604.16
2018-12-09T00:34:15.752Z,96600.34
2018-12-09T00:36:43.588Z,96594.09
2018-12-09T00:39:10.971Z,96594.63
2018-12-09T00:41:38.405Z,96598.02
2018-12-09T00:44:05.928Z,96577.25
2018-12-09T00:46:33.333Z,96568.30
2018-12-09T00:49:00.724Z,96564.89
2018-12-09T00:51:28.596Z,96557.20
2018-12-09T00:53:56.016Z,96537.19
2018-12-09T00:56:23.477Z,96524.94
2018-12-09T00:58:50.868Z,96537.45
2018-12-09T01:01:18.273Z,96545.23
2018-12-09T01:03:45.660Z,96536.34
2018-12-09T01:06:13.063Z,96553.30
2018-12-09T01:08:40.464Z,96555.48
2018-12-09T01:11:07.864Z,96552.32
2018-12-09T01:13:35.303Z,96566.02
2018-12-09T01:16:02.786Z,96545.73
2018-12-09T01:18:30.240Z,96543.27
2018-12-09T01:20:57.681Z,96544.94
2018-12-09T01:23:25.070Z,96543.80
2018-12-09T01:25:52.484Z,96545.63
2018-12-09T01:28:19.965Z,96558.83
2018-12-09T01:30:47.442Z,96535.98
2018-12-09T01:33:14.953Z,96526.23
2018-12-09T01:35:42.349Z,96517.16
2018-12-09T01:38:09.835Z,96496.00
2018-12-09T01:40:42.976Z,96520.34
2018-12-09T01:43:10.757Z,96526.55
2018-12-09T01:45:38.171Z,96520.59
2018-12-09T01:48:05.705Z,96527.97
2018-12-09T01:50:33.232Z,96530.92
2018-12-09T01:53:12.508Z,96516.47
2018-12-09T01:55:41.022Z,96519.54
2018-12-09T01:58:08.484Z,96512.94
2018-12-09T02:00:36.020Z,96520.27
2018-12-09T02:03:03.990Z,96513.98
2018-12-09T02:05:31.524Z,96530.88
2018-12-09T02:07:59.004Z,96524.20
2018-12-09T02:10:26.615Z,96516.50
2018-12-09T02:12:54.020Z,96525.56
2018-12-09T02:15:21.454Z,96527.15
2018-12-09T02:17:48.929Z,96529.48
2018-12-09T02:20:16.466Z,96537.12
2018-12-09T02:22:43.877Z,96529.64
2018-12-09T02:25:11.411Z,96525.50
2018-12-09T02:27:39.392Z,96518.52
2018-12-09T02:30:06.973Z,96533.37
2018-12-09T02:32:34.463Z,96518.11
2018-12-09T02:35:02.039Z,96507.59
2018-12-09T02:37:29.445Z,96505.13
2018-12-09T02:39:57.147Z,96506.16
2018-12-09T02:42:24.671Z,96495.52
2018-12-09T02:44:52.063Z,96490.03
2018-12-09T02:47:19.556Z,96489.78
2018-12-09T02:49:47.151Z,96489.56
2018-12-09T02:52:14.668Z,96496.05
2018-12-09T02:54:42.156Z,96478.55
2018-12-09T02:57:09.713Z,96481.59
2018-12-09T02:59:37.142Z,96488.81
2018-12-09T03:02:04.628Z,96518.36
2018-12-09T03:04:32.174Z,96556.48
2018-12-09T03:06:59.616Z,96564.50
2018-12-09T03:09:27.109Z,96544.36
2018-12-09T03:11:54.623Z,96493.09
2018-12-09T03:14:22.115Z,96483.62
2018-12-09T03:16:49.652Z,96502.14
2018-12-09T03:19:17.057Z,96528.89
2018-12-09T03:21:44.540Z,96514.28
2018-12-09T03:24:12.016Z,96523.16
2018-12-09T03:26:39.512Z,96504.85
2018-12-09T03:29:06.903Z,96504.19
2018-12-09T03:31:34.317Z,96523.87
2018-12-09T03:34:01.801Z,96521.47
2018-12-09T03:36:29.286Z,96498.02
2018-12-09T03:38:56.772Z,96506.82
2018-12-09T03:41:24.268Z,96500.38
2018-12-09T03:43:51.664Z,96506.00
2018-12-09T03:46:19.061Z,96518.72
2018-12-09T03:48:46.470Z,96498.67
2018-12-09T03:51:13.961Z,96498.44
2018-12-09T03:53:41.364Z,96508.75
2018-12-09T03:56:08.861Z,96519.39
2018-12-09T03:58:36.261Z,96511.92
2018-12-09T04:01:03.659Z,96515.58
2018-12-09T04:03:31.214Z,96521.52
2018-12-09T04:05:58.692Z,96520.15
2018-12-09T04:08:26.088Z,96521.73
2018-12-09T04:10:53.632Z,96535.72
2018-12-09T04:13:21.117Z,96551.05
2018-12-09T04:15:48.758Z,96538.45
2018-12-09T04:18:16.244Z,96522.98
2018-12-09T04:20:43.672Z,96524.47
2018-12-09T04:23:11.141Z,96521.27
2018-12-09T04:25:38.535Z,96499.09
2018-12-09T04:28:05.935Z,96513.02
2018-12-09T04:30:33.417Z,96511.54
2018-12-09T04:33:00.921Z,96543.25
2018-12-09T04:35:28.406Z,96555.98
2018-12-09T04:37:55.937Z,96549.91
2018-12-09T04:40:23.485Z,96552.77
2018-12-09T04:42:50.887Z,96553.83
2018-12-09T04:45:18.356Z,96555.66
2018-12-09T04:47:45.850Z,96560.35
2018-12-09T04:50:13.328Z,96565.28
2018-12-09T04:52:40.764Z,96571.94
2018-12-09T04:55:08.269Z,96566.34
2018-12-09T04:57:35.749Z,96563.34
2018-12-09T05:00:15.366Z,96560.25
2018-12-09T05:02:42.936Z,96578.34
2018-12-09T05:05:10.376Z,96589.33
2018-12-09T05:07:37.861Z,96584.53
2018-12-09T05:10:05.836Z,96588.63
2018-12-09T05:12:33.341Z,96576.48
2018-12-09T05:15:00.725Z,96575.23
2018-12-09T05:17:28.216Z,96578.31
2018-12-09T05:19:55.628Z,96588.48
2018-12-09T05:22:23.032Z,96584.84
2018-12-09T05:24:50.516Z,96577.06
2018-12-09T05:27:17.934Z,96579.91
2018-12-09T05:29:45.520Z,96571.45
2018-12-09T05:32:13.004Z,96564.84
2018-12-09T05:34:40.440Z,96567.84
2018-12-09T05:37:07.833Z,96558.19
2018-12-09T05:39:35.315Z,96557.17
2018-12-09T05:42:03.009Z,96560.95
2018-12-09T05:44:30.400Z,96561.97
2018-12-09T05:46:57.789Z,96568.03
2018-12-09T05:49:25.276Z,96568.84
2018-12-09T05:51:52.757Z,96571.13
2018-12-09T05:54:20.237Z,96591.39
2018-12-09T05:56:47.649Z,96586.34
2018-12-09T05:59:15.125Z,96590.58
2018-12-09T06:01:42.652Z,96593.68
2018-12-09T06:04:10.148Z,96620.23
2018-12-09T06:06:37.625Z,96597.23
2018-12-09T06:09:05.604Z,96604.67
2018-12-09T06:11:32.993Z,96618.63
2018-12-09T06:14:00.513Z,96618.41
2018-12-09T06:16:27.889Z,96613.02
2018-12-09T06:18:55.384Z,96604.42
2018-12-09T06:21:22.778Z,96607.88
2018-12-09T06:23:50.172Z,96620.45
2018-12-09T06:26:17.721Z,96620.00
2018-12-09T06:28:45.115Z,96620.00
2018-12-09T06:31:12.592Z,96635.22
2018-12-09T06:33:39.992Z,96640.15
2018-12-09T06:36:07.476Z,96636.38
2018-12-09T06:38:34.956Z,96624.02
2018-12-09T06:41:02.351Z,96623.45
2018-12-09T06:43:29.793Z,96625.28
2018-12-09T06:45:57.468Z,96628.48
2018-12-09T06:48:24.885Z,96635.11
2018-12-09T06:50:52.293Z,96640.39
2018-12-09T06:53:19.777Z,96653.22
2018-12-09T06:55:47.256Z,96646.09
2018-12-09T06:58:14.665Z,96651.84
2018-12-09T07:00:42.056Z,96670.94
2018-12-09T07:03:09.532Z,96667.98
2018-12-09T07:05:36.934Z,96682.06
2018-12-09T07:08:04.461Z,96690.42
2018-12-09T07:10:31.872Z,96681.94
2018-12-09T07:12:59.745Z,96683.55
2018-12-09T07:15:27.236Z,96676.22
2018-12-09T07:17:54.641Z,96690.41
2018-12-09T07:20:22.120Z,96685.82
2018-12-09T07:22:49.504Z,96687.77
2018-12-09T07:25:17.092Z,96695.92
2018-12-09T07:27:44.568Z,96702.44
2018-12-09T07:30:11.960Z,96701.28
2018-12-09T07:32:39.448Z,96719.96
2018-12-09T07:35:07.225Z,96723.27
2018-12-09T07:37:34.610Z,96740.91
2018-12-09T07:40:02.009Z,96749.51
2018-12-09T07:42:29.492Z,96767.59
2018-12-09T07:44:57.028Z,96765.07
2018-12-09T07:47:24.522Z,96773.88
2018-12-09T07:49:51.993Z,96772.39
2018-12-09T07:52:19.781Z,96784.09
2018-12-09T07:54:47.180Z,96788.66
2018-12-09T07:57:14.612Z,96795.99
2018-12-09T07:59:42.016Z,96790.61
2018-12-09T08:02:09.420Z,96799.30
2018-12-09T08:04:36.812Z,96795.98
2018-12-09T08:07:04.265Z,96800.58
2018-12-09T08:09:31.663Z,96814.19
2018-12-09T08:11:59.052Z,96823.45
2018-12-09T08:14:26.449Z,96834.77
2018-12-09T08:16:53.840Z,96841.64
2018-12-09T08:19:21.250Z,96847.14
2018-12-09T08:21:48.637Z,96850.58
2018-12-09T08:24:16.021Z,96853.33
2018-12-09T08:26:43.420Z,96856.07
2018-12-09T08:29:10.808Z,96854.72
2018-12-09T08:31:38.319Z,96876.42
2018-12-09T08:34:05.685Z,96851.02
2018-12-09T08:36:33.075Z,96855.01
2018-12-09T08:39:00.485Z,96852.50
2018-12-09T08:41:27.865Z,96852.97
2018-12-09T08:43:55.252Z,96864.65
2018-12-09T08:46:22.714Z,96864.19
2018-12-09T08:48:50.092Z,96869.34
2018-12-09T08:51:17.489Z,96870.81
2018-12-09T08:53:44.896Z,96866.01
2018-12-09T08:56:12.293Z,96865.55
2018-12-09T08:58:39.921Z,96872.41
2018-12-09T09:01:07.364Z,96863.89
2018-12-09T09:03:34.763Z,96842.18
2018-12-09T09:06:02.222Z,96845.95
2018-12-09T09:08:34.276Z,96838.98
2018-12-09T09:11:02.737Z,96849.39
2018-12-09T09:13:30.124Z,96835.89
2018-12-09T09:15:57.512Z,96844.26
2018-12-09T09:18:24.960Z,96841.84
2018-12-09T09:20:52.360Z,96841.73
2018-12-09T09:23:19.941Z,96844.70
2018-12-09T09:25:47.348Z,96846.42
2018-12-09T09:28:14.750Z,96852.73
2018-12-09T09:30:42.132Z,96857.50
2018-12-09T09:33:09.535Z,96860.25
2018-12-09T09:35:36.926Z,96864.12
2018-12-09T09:38:04.314Z,96879.42
2018-12-09T09:40:34.264Z,96864.62
2018-12-09T09:43:02.121Z,96874.33
2018-12-09T09:45:29.516Z,96871.30
2018-12-09T09:47:56.981Z,96863.20
2018-12-09T09:50:24.389Z,96870.08
2018-12-09T09:52:51.784Z,96855.53
2018-12-09T09:55:19.185Z,96849.09
2018-12-09T09:57:46.599Z,96854.68
2018-12-09T10:00:14.081Z,96848.53
2018-12-09T10:02:41.468Z,96849.91
2018-12-09T10:05:08.868Z,96840.98
2018-12-09T10:07:36.256Z,96843.64
2018-12-09T10:10:04.945Z,96846.73
2018-12-09T10:12:32.382Z,96847.42
2018-12-09T10:14:59.836Z,96845.30
2018-12-09T10:17:27.491Z,96847.61
2018-12-09T10:19:54.869Z,96847.70
2018-12-09T10:22:22.252Z,96844.96
2018-12-09T10:24:49.663Z,96854.69
2018-12-09T10:27:17.093Z,96860.34
2018-12-09T10:29:44.468Z,96855.81
2018-12-09T10:32:11.885Z,96854.50
2018-12-09T10:34:39.288Z,96867.63
2018-12-09T10:37:06.676Z,96876.20
2018-12-09T10:39:34.080Z,96862.82
2018-12-09T10:42:01.516Z,96868.73
2018-12-09T10:44:28.908Z,96876.16
2018-12-09T10:46:56.360Z,96872.63
2018-12-09T10:49:23.859Z,96874.27
2018-12-09T10:51:51.231Z,96868.22
2018-12-09T10:54:18.640Z,96874.02
2018-12-09T10:56:46.083Z,96881.81
2018-12-09T10:59:13.493Z,96879.29
2018-12-09T11:01:42.844Z,96877.15
2018-12-09T11:04:10.289Z,96884.87
2018-12-09T11:06:37.744Z,96875.01
2018-12-09T11:09:06.172Z,96881.65
2018-12-09T11:11:33.596Z,96874.23
2018-12-09T11:14:01.000Z,96846.91
2018-12-09T11:16:28.400Z,96865.54
2018-12-09T11:18:55.803Z,96861.94
2018-12-09T11:21:30.335Z,96862.70
2018-12-09T11:23:52.594Z,96873.37
2018-12-09T11:26:20.831Z,96865.89
2018-12-09T11:28:49.748Z,96863.94
2018-12-09T11:31:17.340Z,96864.19
2018-12-09T11:33:44.845Z,96859.59
2018-12-09T11:36:12.241Z,96849.80
2018-12-09T11:38:39.649Z,96842.89
2018-12-09T11:41:07.128Z,96849.94
2018-12-09T11:43:34.532Z,96853.09
2018-12-09T11:46:03.383Z,96852.18
2018-12-09T11:48:30.935Z,96844.93
2018-12-09T11:51:00.308Z,96846.23
2018-12-09T11:53:28.060Z,96832.70
2018-12-09T11:55:55.484Z,96837.77
2018-12-09T11:58:22.882Z,96838.11
2018-12-09T12:00:50.297Z,96840.98
2018-12-09T12:03:17.754Z,96836.48
2018-12-09T12:05:45.140Z,96838.67
2018-12-09T12:08:12.548Z,96834.69
2018-12-09T12:10:39.968Z,96829.45
2018-12-09T12:13:07.367Z,96826.88
2018-12-09T12:15:34.857Z,96820.36
2018-12-09T12:18:02.253Z,96825.38
2018-12-09T12:20:29.642Z,96825.20
2018-12-09T12:22:57.044Z,96826.58
2018-12-09T12:25:24.442Z,96834.41
2018-12-09T12:27:51.834Z,96829.94
2018-12-09T12:30:19.244Z,96821.70
2018-12-09T12:32:46.657Z,96826.02
2018-12-09T12:35:14.053Z,96821.70
2018-12-09T12:37:41.508Z,96815.59
2018-12-09T12:40:09.193Z,96819.34
2018-12-09T12:42:36.581Z,96812.06
2018-12-09T12:45:05.380Z,96804.86
2018-12-09T12:47:32.868Z,96802.67
2018-12-09T12:50:00.309Z,96806.38
2018-12-09T12:52:27.804Z,96806.23
2018-12-09T12:54:56.048Z,96813.31
2018-12-09T12:57:24.789Z,96813.19
2018-12-09T12:59:52.192Z,96814.99
2018-12-09T13:02:19.690Z,96821.00
2018-12-09T13:04:47.056Z,96811.36
2018-12-09T13:07:14.461Z,96820.58
2018-12-09T13:09:41.853Z,96825.42
2018-12-09T13:12:09.272Z,96825.42
2018-12-09T13:14:36.670Z,96828.80
2018-12-09T13:17:04.200Z,96835.66
2018-12-09T13:19:31.613Z,96846.10
2018-12-09T13:21:59.009Z,96849.15
2018-12-09T13:24:26.408Z,96836.69
2018-12-09T13:26:53.860Z,96847.30
2018-12-09T13:29:21.270Z,96839.86
2018-12-09T13:31:48.663Z,96836.13
2018-12-09T13:34:16.133Z,96824.13
2018-12-09T13:36:43.536Z,96824.81
2018-12-09T13:39:10.970Z,96825.63
2018-12-09T13:41:38.374Z,96822.54
2018-12-09T13:44:05.831Z,96806.46
2018-12-09T13:46:33.224Z,96817.73
2018-12-09T13:49:00.683Z,96816.61
2018-12-09T13:51:28.123Z,96826.16
2018-12-09T13:53:55.529Z,96829.34
2018-12-09T13:56:23.030Z,96829.08
2018-12-09T13:58:50.425Z,96827.48
2018-12-09T14:01:17.820Z,96831.31
2018-12-09T14:03:45.220Z,96839.50
2018-12-09T14:06:12.624Z,96831.59
2018-12-09T14:08:40.032Z,96838.73
2018-12-09T14:11:07.524Z,96842.67
2018-12-09T14:13:34.944Z,96842.20
2018-12-09T14:16:02.363Z,96848.02
2018-12-09T14:18:29.845Z,96851.27
2018-12-09T14:20:57.289Z,96852.30
2018-12-09T14:23:24.736Z,96854.63
2018-12-09T14:25:52.212Z,96866.06
2018-12-09T14:28:19.608Z,96877.12
2018-12-09T14:30:47.020Z,96875.38
2018-12-09T14:33:14.504Z,96877.23
2018-12-09T14:35:41.900Z,96871.83
2018-12-09T14:38:09.339Z,96864.75
2018-12-09T14:40:36.732Z,96873.67
2018-12-09T14:43:04.137Z,96873.17
2018-12-09T14:45:31.528Z,96872.50
2018-12-09T14:47:58.921Z,96852.33
2018-12-09T14:50:26.328Z,96866.79
2018-12-09T14:52:53.741Z,96858.92
2018-12-09T14:55:21.154Z,96846.98
2018-12-09T14:57:48.568Z,96867.77
2018-12-09T15:00:16.064Z,96869.25
2018-12-09T15:02:43.526Z,96870.64
2018-12-09T15:05:10.965Z,96882.98
2018-12-09T15:07:38.374Z,96889.28
2018-12-09T15:10:08.970Z,96893.35
2018-12-09T15:12:35.645Z,96901.72
2018-12-09T15:15:03.165Z,96911.99
2018-12-09T15:17:30.562Z,96908.30
2018-12-09T15:19:58.221Z,96907.06
2018-12-09T15:22:25.614Z,96904.80
2018-12-09T15:24:53.007Z,96907.63
2018-12-09T15:27:20.416Z,96907.59
2018-12-09T15:29:47.812Z,96910.70
2018-12-09T15:32:15.192Z,96920.41
2018-12-09T15:34:42.604Z,96921.39
2018-12-09T15:37:10.049Z,96931.39
2018-12-09T15:39:37.442Z,96932.28
2018-12-09T15:42:04.849Z,96936.80
2018-12-09T15:44:32.319Z,96941.25
2018-12-09T15:46:59.716Z,96945.03
2018-12-09T15:49:28.379Z,96947.11
2018-12-09T15:51:55.908Z,96960.59
2018-12-09T15:54:23.552Z,96955.81
2018-12-09T15:56:51.012Z,96968.08
2018-12-09T15:59:18.404Z,96970.82
2018-12-09T16:01:45.800Z,96974.93
2018-12-09T16:04:13.205Z,96981.53
2018-12-09T16:06:40.606Z,96987.27
2018-12-09T16:09:08.170Z,96983.02
2018-12-09T16:11:35.560Z,96989.61
2018-12-09T16:14:03.000Z,96999.22
2018-12-09T16:16:30.407Z,96998.66
2018-12-09T16:18:57.857Z,97005.03
2018-12-09T16:21:25.252Z,97011.14
2018-12-09T16:23:52.652Z,97019.78
2018-12-09T16:26:20.100Z,97021.30
2018-12-09T16:28:47.504Z,97021.23
2018-12-09T16:31:14.901Z,97026.45
2018-12-09T16:33:42.304Z,97038.53
2018-12-09T16:36:09.697Z,97043.45
2018-12-09T16:38:37.117Z,97044.23
2018-12-09T16:41:04.502Z,97056.02
2018-12-09T16:43:31.888Z,97064.40
2018-12-09T16:45:59.340Z,97065.50
2018-12-09T16:48:26.728Z,97063.12
2018-12-09T16:50:54.113Z,97066.91
2018-12-09T16:53:21.512Z,97070.53
2018-12-09T16:55:48.917Z,97074.31
2018-12-09T16:58:16.308Z,97079.95
2018-12-09T17:00:43.763Z,97086.17
2018-12-09T17:03:11.246Z,97089.55
2018-12-09T17:05:38.633Z,97094.78
2018-12-09T17:08:06.036Z,97104.53
2018-12-09T17:10:33.431Z,97104.53
2018-12-09T17:13:00.917Z,97106.64
2018-12-09T17:15:28.321Z,97111.17
2018-12-09T17:17:55.712Z,97123.11
2018-12-09T17:20:23.125Z,97127.31
2018-12-09T17:22:50.564Z,97122.22
2018-12-09T17:25:17.953Z,97133.51
2018-12-09T17:27:45.357Z,97150.66
2018-12-09T17:30:12.749Z,97153.92
2018-12-09T17:32:40.141Z,97166.45
2018-12-09T17:35:07.543Z,97170.20
2018-12-09T17:37:34.944Z,97168.34
2018-12-09T17:40:02.336Z,97181.12
2018-12-09T17:42:29.929Z,97184.75
2018-12-09T17:44:57.333Z,97186.50
2018-12-09T17:47:24.732Z,97195.55
2018-12-09T17:49:52.140Z,97196.02
2018-12-09T17:52:19.535Z,97197.73
2018-12-09T17:54:46.933Z,97198.03
2018-12-09T17:57:14.336Z,97203.06
2018-12-09T17:59:41.737Z,97200.78
2018-12-09T18:02:09.132Z,97200.33
2018-12-09T18:04:36.545Z,97207.81
2018-12-09T18:07:03.940Z,97213.30
2018-12-09T18:09:31.344Z,97220.91
2018-12-09T18:11:58.745Z,97229.36
2018-12-09T18:14:26.132Z,97224.09
2018-12-09T18:16:53.536Z,97224.09
2018-12-09T18:19:21.070Z,97234.78
2018-12-09T18:21:48.558Z,97234.19
2018-12-09T18:24:15.962Z,97235.09
2018-12-09T18:26:43.364Z,97249.54
2018-12-09T18:29:10.756Z,97255.91
2018-12-09T18:31:38.282Z,97259.77
2018-12-09T18:34:05.790Z,97266.49
2018-12-09T18:36:33.553Z,97275.38
2018-12-09T18:39:00.998Z,97270.21
2018-12-09T18:41:28.477Z,97290.05
2018-12-09T18:43:55.888Z,97290.38
2018-12-09T18:46:23.289Z,97300.86
2018-12-09T18:48:50.693Z,97301.65
2018-12-09T18:51:18.097Z,97311.02
2018-12-09T18:53:45.491Z,97317.16
2018-12-09T18:56:12.898Z,97328.20
2018-12-09T18:58:40.292Z,97338.52
2018-12-09T19:01:07.693Z,97331.27
2018-12-09T19:03:35.088Z,97339.02
2018-12-09T19:06:02.495Z,97343.95
2018-12-09T19:08:30.025Z,97340.28
2018-12-09T19:10:57.481Z,97357.66
2018-12-09T19:13:24.888Z,97364.74
2018-12-09T19:15:52.284Z,97369.73
2018-12-09T19:18:19.684Z,97379.11
2018-12-09T19:20:47.076Z,97377.86
2018-12-09T19:23:14.480Z,97384.00
2018-12-09T19:25:41.880Z,97382.13
2018-12-09T19:28:09.305Z,97395.13
2018-12-09T19:30:36.742Z,97392.27
2018-12-09T19:33:04.180Z,97408.17
2018-12-09T19:35:31.588Z,97414.53
2018-12-09T19:37:58.983Z,97415.95
2018-12-09T19:40:26.393Z,97426.92
2018-12-09T19:42:55.627Z,97442.88
2018-12-09T19:45:23.148Z,97444.52
2018-12-09T19:47:50.604Z,97444.72
2018-12-09T19:50:18.016Z,97457.94
2018-12-09T19:52:45.593Z,97464.38
2018-12-09T19:55:13.001Z,97462.02
2018-12-09T19:57:40.395Z,97465.17
2018-12-09T20:00:07.896Z,97471.24
2018-12-09T20:02:35.338Z,97475.77
2018-12-09T20:05:02.785Z,97479.50
2018-12-09T20:07:30.991Z,97487.17
2018-12-09T20:09:58.374Z,97497.83
2018-12-09T20:12:25.777Z,97497.27
2018-12-09T20:14:53.209Z,97501.44
2018-12-09T20:17:20.593Z,97506.25
2018-12-09T20:19:48.004Z,97514.85
2018-12-09T20:22:15.411Z,97520.48
2018-12-09T20:24:42.837Z,97533.42
2018-12-09T20:27:10.238Z,97540.78
2018-12-09T20:29:37.633Z,97532.32
2018-12-09T20:32:05.041Z,97540.36
2018-12-09T20:34:32.633Z,97553.02
2018-12-09T20:37:00.026Z,97565.05
2018-12-09T20:39:27.422Z,97565.55
2018-12-09T20:41:54.831Z,97565.78
2018-12-09T20:44:22.238Z,97574.32
2018-12-09T20:46:49.643Z,97581.41
2018-12-09T20:49:17.049Z,97586.84
2018-12-09T20:51:44.506Z,97585.73
2018-12-09T20:54:11.891Z,97594.14
2018-12-09T20:56:39.309Z,97595.93
2018-12-09T20:59:06.696Z,97608.91
2018-12-09T21:01:34.088Z,97609.73
2018-12-09T21:04:01.501Z,97610.66
2018-12-09T21:06:28.896Z,97619.61
2018-12-09T21:08:56.309Z,97610.13
2018-12-09T21:11:23.712Z,97615.59
2018-12-09T21:13:51.105Z,97612.48
2018-12-09T21:16:18.521Z,97623.23
2018-12-09T21:18:45.920Z,97625.10
2018-12-09T21:21:13.557Z,97628.88
2018-12-09T21:23:40.980Z,97630.63
2018-12-09T21:26:08.356Z,97629.34
2018-12-09T21:28:35.748Z,97632.73
2018-12-09T21:31:03.157Z,97635.89
2018-12-09T21:33:30.548Z,97643.25
2018-12-09T21:35:57.945Z,97647.00
2018-12-09T21:38:25.356Z,97653.73
2018-12-09T21:40:52.753Z,97655.18
2018-12-09T21:43:20.148Z,97672.37
2018-12-09T21:45:47.716Z,97661.67
2018-12-09T21:48:15.113Z,97673.06
2018-12-09T21:50:42.509Z,97673.69
2018-12-09T21:53:09.928Z,97686.84
2018-12-09T21:55:37.320Z,97674.94
2018-12-09T21:58:04.718Z,97681.80
2018-12-09T22:00:32.128Z,97684.66
2018-12-09T22:02:59.520Z,97688.50
2018-12-09T22:05:26.934Z,97696.22
2018-12-09T22:07:54.334Z,97694.66
2018-12-09T22:10:21.725Z,97698.26
2018-12-09T22:12:49.142Z,97705.94
2018-12-09T22:15:16.976Z,97712.55
2018-12-09T22:17:44.548Z,97706.80
2018-12-09T22:20:12.036Z,97720.45
2018-12-09T22:22:39.433Z,97717.41
2018-12-09T22:25:06.871Z,97726.45
2018-12-09T22:27:34.284Z,97734.52
2018-12-09T22:30:02.697Z,97728.02
2018-12-09T22:32:30.094Z,97740.04
2018-12-09T22:34:57.509Z,97748.61
2018-12-09T22:37:24.905Z,97766.39
2018-12-09T22:39:52.301Z,97777.86
2018-12-09T22:42:19.710Z,97775.94
2018-12-09T22:44:47.107Z,97783.85
2018-12-09T22:47:14.496Z,97793.75
2018-12-09T22:49:41.905Z,97787.97
2018-12-09T22:52:09.301Z,97791.77
2018-12-09T22:54:36.700Z,97793.69
2018-12-09T22:57:07.005Z,97790.70
2018-12-09T22:59:34.400Z,97794.30
2018-12-09T23:02:07.532Z,97797.86
2018-12-09T23:04:34.979Z,97797.55
2018-12-09T23:10:06.243Z,97810.44
2018-12-09T23:12:33.649Z,97816.70
2018-12-09T23:15:01.080Z,97814.16
2018-12-09T23:17:28.490Z,97821.22
2018-12-09T23:19:55.887Z,97830.54
2018-12-09T23:22:23.290Z,97826.34
2018-12-09T23:24:50.884Z,97834.58
2018-12-09T23:27:18.360Z,97836.18
2018-12-09T23:29:45.762Z,97842.02
2018-12-09T23:32:13.176Z,97834.92
2018-12-09T23:34:40.564Z,97848.62
2018-12-09T23:37:08.036Z,97845.62
2018-12-09T23:39:35.472Z,97856.30
2018-12-09T23:42:13.674Z,97854.70
2018-12-09T23:44:41.935Z,97856.89
2018-12-09T23:47:09.650Z,97862.17
2018-12-09T23:49:37.057Z,97870.94
2018-12-09T23:52:04.500Z,97866.90
2018-12-09T23:54:31.908Z,97868.34
2018-12-09T23:56:59.313Z,97869.20
2018-12-09T23:59:26.756Z,97866.32
